sensor_id;sensor_type;location;lat;lon;timestamp;temperature;humidity
13426;DHT22;6785;57.918;12.530;2023-07-09T00:01:22;13.70;99.90
13426;DHT22;6785;57.918;12.530;2023-07-09T00:03:49;13.60;99.90
13426;DHT22;6785;57.918;12.530;2023-07-09T00:06:17;13.50;99.90
13426;DHT22;6785;57.918;12.530;2023-07-09T00:08:46;13.50;99.90
13426;DHT22;6785;57.918;12.530;2023-07-09T00:11:13;13.40;99.90
13426;DHT22;6785;57.918;12.530;2023-07-09T00:13:40;13.40;99.90
13426;DHT22;6785;57.918;12.530;2023-07-09T00:16:13;13.30;99.90
13426;DHT22;6785;57.918;12.530;2023-07-09T00:18:42;13.30;99.90
13426;DHT22;6785;57.918;12.530;2023-07-09T00:21:09;13.30;99.90
13426;DHT22;6785;57.918;12.530;2023-07-09T00:23:38;13.30;99.90
13426;DHT22;6785;57.918;12.530;2023-07-09T00:26:09;13.20;99.90
13426;DHT22;6785;57.918;12.530;2023-07-09T00:28:39;13.30;99.90
13426;DHT22;6785;57.918;12.530;2023-07-09T00:31:09;13.30;99.90
13426;DHT22;6785;57.918;12.530;2023-07-09T00:33:39;13.20;99.90
13426;DHT22;6785;57.918;12.530;2023-07-09T00:36:13;13.20;99.90
13426;DHT22;6785;57.918;12.530;2023-07-09T00:38:40;13.20;99.90
13426;DHT22;6785;57.918;12.530;2023-07-09T00:41:20;13.10;99.90
13426;DHT22;6785;57.918;12.530;2023-07-09T00:43:49;13.10;99.90
13426;DHT22;6785;57.918;12.530;2023-07-09T00:49:28;13.00;99.90
13426;DHT22;6785;57.918;12.530;2023-07-09T00:52:02;12.90;99.90
13426;DHT22;6785;57.918;12.530;2023-07-09T00:54:37;12.90;99.90
13426;DHT22;6785;57.918;12.530;2023-07-09T00:57:11;12.80;99.90
13426;DHT22;6785;57.918;12.530;2023-07-09T00:59:43;12.80;99.90
13426;DHT22;6785;57.918;12.530;2023-07-09T01:02:10;12.70;99.90
13426;DHT22;6785;57.918;12.530;2023-07-09T01:04:40;12.70;99.90
13426;DHT22;6785;57.918;12.530;2023-07-09T01:07:07;12.70;99.90
13426;DHT22;6785;57.918;12.530;2023-07-09T01:09:35;12.70;99.90
13426;DHT22;6785;57.918;12.530;2023-07-09T01:12:08;12.70;99.90
13426;DHT22;6785;57.918;12.530;2023-07-09T01:14:37;12.70;99.90
13426;DHT22;6785;57.918;12.530;2023-07-09T01:17:06;12.70;99.90
13426;DHT22;6785;57.918;12.530;2023-07-09T01:19:42;12.70;99.90
13426;DHT22;6785;57.918;12.530;2023-07-09T01:22:12;12.70;99.90
13426;DHT22;6785;57.918;12.530;2023-07-09T01:24:55;12.60;99.90
13426;DHT22;6785;57.918;12.530;2023-07-09T01:27:31;12.60;99.90
13426;DHT22;6785;57.918;12.530;2023-07-09T01:30:03;12.60;99.90
13426;DHT22;6785;57.918;12.530;2023-07-09T01:32:31;12.60;99.90
13426;DHT22;6785;57.918;12.530;2023-07-09T01:35:01;12.60;99.90
13426;DHT22;6785;57.918;12.530;2023-07-09T01:37:35;12.60;99.90
13426;DHT22;6785;57.918;12.530;2023-07-09T01:40:02;12.50;99.90
13426;DHT22;6785;57.918;12.530;2023-07-09T01:42:32;12.50;99.90
13426;DHT22;6785;57.918;12.530;2023-07-09T01:44:59;12.50;99.90
13426;DHT22;6785;57.918;12.530;2023-07-09T01:47:28;12.50;99.90
13426;DHT22;6785;57.918;12.530;2023-07-09T01:49:57;12.60;99.90
13426;DHT22;6785;57.918;12.530;2023-07-09T01:52:27;12.60;99.90
13426;DHT22;6785;57.918;12.530;2023-07-09T01:54:56;12.60;99.90
13426;DHT22;6785;57.918;12.530;2023-07-09T01:57:24;12.40;99.90
13426;DHT22;6785;57.918;12.530;2023-07-09T01:59:59;12.40;99.90
13426;DHT22;6785;57.918;12.530;2023-07-09T02:02:26;12.40;99.90
13426;DHT22;6785;57.918;12.530;2023-07-09T02:04:54;12.30;99.90
13426;DHT22;6785;57.918;12.530;2023-07-09T02:07:24;12.30;99.90
13426;DHT22;6785;57.918;12.530;2023-07-09T02:09:52;12.30;99.90
13426;DHT22;6785;57.918;12.530;2023-07-09T02:12:21;12.30;99.90
13426;DHT22;6785;57.918;12.530;2023-07-09T02:14:48;12.30;99.90
13426;DHT22;6785;57.918;12.530;2023-07-09T02:17:15;12.30;99.90
13426;DHT22;6785;57.918;12.530;2023-07-09T02:19:42;12.40;99.90
13426;DHT22;6785;57.918;12.530;2023-07-09T02:22:10;12.40;99.90
13426;DHT22;6785;57.918;12.530;2023-07-09T02:24:37;12.40;99.90
13426;DHT22;6785;57.918;12.530;2023-07-09T02:27:07;12.30;99.90
13426;DHT22;6785;57.918;12.530;2023-07-09T02:29:37;12.30;99.90
13426;DHT22;6785;57.918;12.530;2023-07-09T02:32:07;12.30;99.90
13426;DHT22;6785;57.918;12.530;2023-07-09T02:34:37;12.30;99.90
13426;DHT22;6785;57.918;12.530;2023-07-09T02:37:03;12.30;99.90
13426;DHT22;6785;57.918;12.530;2023-07-09T02:39:30;12.30;99.90
13426;DHT22;6785;57.918;12.530;2023-07-09T02:41:57;12.40;99.90
13426;DHT22;6785;57.918;12.530;2023-07-09T02:44:23;12.40;99.90
13426;DHT22;6785;57.918;12.530;2023-07-09T02:46:51;12.40;99.90
13426;DHT22;6785;57.918;12.530;2023-07-09T02:49:18;12.40;99.90
13426;DHT22;6785;57.918;12.530;2023-07-09T02:51:45;12.40;99.90
13426;DHT22;6785;57.918;12.530;2023-07-09T02:54:11;12.40;99.90
13426;DHT22;6785;57.918;12.530;2023-07-09T02:56:39;12.40;99.90
13426;DHT22;6785;57.918;12.530;2023-07-09T02:59:07;12.40;99.90
13426;DHT22;6785;57.918;12.530;2023-07-09T03:01:35;12.40;99.90
13426;DHT22;6785;57.918;12.530;2023-07-09T03:04:04;12.40;99.90
13426;DHT22;6785;57.918;12.530;2023-07-09T03:06:31;12.50;99.90
13426;DHT22;6785;57.918;12.530;2023-07-09T03:09:00;12.50;99.90
13426;DHT22;6785;57.918;12.530;2023-07-09T03:11:28;12.60;99.90
13426;DHT22;6785;57.918;12.530;2023-07-09T03:13:57;12.60;99.90
13426;DHT22;6785;57.918;12.530;2023-07-09T03:16:25;12.70;99.90
13426;DHT22;6785;57.918;12.530;2023-07-09T03:18:53;12.70;99.90
13426;DHT22;6785;57.918;12.530;2023-07-09T03:21:22;12.70;99.90
13426;DHT22;6785;57.918;12.530;2023-07-09T03:23:49;12.80;99.90
13426;DHT22;6785;57.918;12.530;2023-07-09T03:26:16;12.90;99.90
13426;DHT22;6785;57.918;12.530;2023-07-09T03:28:43;13.00;99.90
13426;DHT22;6785;57.918;12.530;2023-07-09T03:31:09;13.00;99.90
13426;DHT22;6785;57.918;12.530;2023-07-09T03:33:36;13.00;99.90
13426;DHT22;6785;57.918;12.530;2023-07-09T03:36:04;13.10;99.90
13426;DHT22;6785;57.918;12.530;2023-07-09T03:38:32;13.20;99.90
13426;DHT22;6785;57.918;12.530;2023-07-09T03:40:59;13.20;99.90
13426;DHT22;6785;57.918;12.530;2023-07-09T03:43:26;13.40;99.90
13426;DHT22;6785;57.918;12.530;2023-07-09T03:45:53;13.40;99.90
13426;DHT22;6785;57.918;12.530;2023-07-09T03:48:20;13.50;99.90
13426;DHT22;6785;57.918;12.530;2023-07-09T03:50:48;13.60;99.90
13426;DHT22;6785;57.918;12.530;2023-07-09T03:53:17;13.70;99.90
13426;DHT22;6785;57.918;12.530;2023-07-09T03:55:50;13.80;99.90
13426;DHT22;6785;57.918;12.530;2023-07-09T03:58:17;13.90;99.90
13426;DHT22;6785;57.918;12.530;2023-07-09T04:00:44;14.00;99.90
13426;DHT22;6785;57.918;12.530;2023-07-09T04:03:11;14.10;99.90
13426;DHT22;6785;57.918;12.530;2023-07-09T04:05:37;14.20;99.90
13426;DHT22;6785;57.918;12.530;2023-07-09T04:08:04;14.30;99.90
13426;DHT22;6785;57.918;12.530;2023-07-09T04:10:31;14.30;99.90
13426;DHT22;6785;57.918;12.530;2023-07-09T04:12:59;14.40;99.90
13426;DHT22;6785;57.918;12.530;2023-07-09T04:15:27;14.40;99.90
13426;DHT22;6785;57.918;12.530;2023-07-09T04:17:53;14.40;99.90
13426;DHT22;6785;57.918;12.530;2023-07-09T04:20:20;14.50;99.90
13426;DHT22;6785;57.918;12.530;2023-07-09T04:22:48;14.60;99.90
13426;DHT22;6785;57.918;12.530;2023-07-09T04:25:14;14.60;99.90
13426;DHT22;6785;57.918;12.530;2023-07-09T04:27:42;14.70;99.90
13426;DHT22;6785;57.918;12.530;2023-07-09T04:30:12;14.70;99.90
13426;DHT22;6785;57.918;12.530;2023-07-09T04:32:40;14.80;99.90
13426;DHT22;6785;57.918;12.530;2023-07-09T04:35:08;14.90;99.90
13426;DHT22;6785;57.918;12.530;2023-07-09T04:37:37;15.00;99.90
13426;DHT22;6785;57.918;12.530;2023-07-09T04:40:04;15.10;99.90
13426;DHT22;6785;57.918;12.530;2023-07-09T04:42:32;15.20;99.90
13426;DHT22;6785;57.918;12.530;2023-07-09T04:44:59;15.30;99.90
13426;DHT22;6785;57.918;12.530;2023-07-09T04:47:27;15.40;99.90
13426;DHT22;6785;57.918;12.530;2023-07-09T04:49:54;15.50;99.90
13426;DHT22;6785;57.918;12.530;2023-07-09T04:52:20;15.60;99.90
13426;DHT22;6785;57.918;12.530;2023-07-09T04:54:47;15.70;99.90
13426;DHT22;6785;57.918;12.530;2023-07-09T04:57:16;15.80;99.90
13426;DHT22;6785;57.918;12.530;2023-07-09T04:59:43;15.90;99.90
13426;DHT22;6785;57.918;12.530;2023-07-09T05:02:11;16.00;99.90
13426;DHT22;6785;57.918;12.530;2023-07-09T05:04:39;16.10;99.90
13426;DHT22;6785;57.918;12.530;2023-07-09T05:07:06;16.30;99.90
13426;DHT22;6785;57.918;12.530;2023-07-09T05:09:33;16.40;99.90
13426;DHT22;6785;57.918;12.530;2023-07-09T05:12:00;16.40;99.90
13426;DHT22;6785;57.918;12.530;2023-07-09T05:14:27;16.60;99.90
13426;DHT22;6785;57.918;12.530;2023-07-09T05:16:54;16.60;99.90
13426;DHT22;6785;57.918;12.530;2023-07-09T05:19:21;16.60;99.90
13426;DHT22;6785;57.918;12.530;2023-07-09T05:21:49;16.60;99.90
13426;DHT22;6785;57.918;12.530;2023-07-09T05:24:16;16.60;99.90
13426;DHT22;6785;57.918;12.530;2023-07-09T05:26:42;16.60;99.90
13426;DHT22;6785;57.918;12.530;2023-07-09T05:29:09;16.70;99.90
13426;DHT22;6785;57.918;12.530;2023-07-09T05:31:36;16.70;99.90
13426;DHT22;6785;57.918;12.530;2023-07-09T05:34:02;16.80;99.90
13426;DHT22;6785;57.918;12.530;2023-07-09T05:36:29;16.90;99.90
13426;DHT22;6785;57.918;12.530;2023-07-09T05:38:57;17.00;99.90
13426;DHT22;6785;57.918;12.530;2023-07-09T05:41:24;17.10;99.90
13426;DHT22;6785;57.918;12.530;2023-07-09T05:43:51;17.10;99.90
13426;DHT22;6785;57.918;12.530;2023-07-09T05:46:19;17.00;99.90
13426;DHT22;6785;57.918;12.530;2023-07-09T05:48:45;17.20;99.90
13426;DHT22;6785;57.918;12.530;2023-07-09T05:51:13;17.30;99.90
13426;DHT22;6785;57.918;12.530;2023-07-09T05:53:40;17.40;99.90
13426;DHT22;6785;57.918;12.530;2023-07-09T05:56:08;17.50;99.90
13426;DHT22;6785;57.918;12.530;2023-07-09T05:58:34;17.60;99.90
13426;DHT22;6785;57.918;12.530;2023-07-09T06:01:01;17.70;99.90
13426;DHT22;6785;57.918;12.530;2023-07-09T06:03:29;17.80;99.90
13426;DHT22;6785;57.918;12.530;2023-07-09T06:05:56;18.00;99.90
13426;DHT22;6785;57.918;12.530;2023-07-09T06:08:24;18.10;99.90
13426;DHT22;6785;57.918;12.530;2023-07-09T06:10:53;18.20;99.90
13426;DHT22;6785;57.918;12.530;2023-07-09T06:13:22;18.30;99.90
13426;DHT22;6785;57.918;12.530;2023-07-09T06:15:50;18.30;99.90
13426;DHT22;6785;57.918;12.530;2023-07-09T06:18:18;18.50;99.90
13426;DHT22;6785;57.918;12.530;2023-07-09T06:20:50;18.60;99.90
13426;DHT22;6785;57.918;12.530;2023-07-09T06:23:19;18.70;99.90
13426;DHT22;6785;57.918;12.530;2023-07-09T06:25:46;18.80;99.90
13426;DHT22;6785;57.918;12.530;2023-07-09T06:28:15;19.00;99.90
13426;DHT22;6785;57.918;12.530;2023-07-09T06:30:45;19.20;99.90
13426;DHT22;6785;57.918;12.530;2023-07-09T06:33:13;19.40;99.90
13426;DHT22;6785;57.918;12.530;2023-07-09T06:35:47;19.50;99.90
13426;DHT22;6785;57.918;12.530;2023-07-09T06:38:14;19.70;99.90
13426;DHT22;6785;57.918;12.530;2023-07-09T06:40:41;19.90;99.90
13426;DHT22;6785;57.918;12.530;2023-07-09T06:43:08;20.20;99.90
13426;DHT22;6785;57.918;12.530;2023-07-09T06:45:57;20.60;99.90
13426;DHT22;6785;57.918;12.530;2023-07-09T06:48:30;20.80;99.90
13426;DHT22;6785;57.918;12.530;2023-07-09T06:50:58;20.90;99.90
13426;DHT22;6785;57.918;12.530;2023-07-09T06:53:34;20.80;99.90
13426;DHT22;6785;57.918;12.530;2023-07-09T06:56:02;20.90;99.90
13426;DHT22;6785;57.918;12.530;2023-07-09T06:58:30;21.10;99.90
13426;DHT22;6785;57.918;12.530;2023-07-09T07:01:00;21.30;99.90
13426;DHT22;6785;57.918;12.530;2023-07-09T07:03:29;21.40;99.90
13426;DHT22;6785;57.918;12.530;2023-07-09T07:05:56;21.40;99.90
13426;DHT22;6785;57.918;12.530;2023-07-09T07:08:25;21.60;99.90
13426;DHT22;6785;57.918;12.530;2023-07-09T07:10:56;21.70;99.90
13426;DHT22;6785;57.918;12.530;2023-07-09T07:13:27;21.80;99.90
13426;DHT22;6785;57.918;12.530;2023-07-09T07:15:54;21.80;99.90
13426;DHT22;6785;57.918;12.530;2023-07-09T07:18:25;22.00;99.90
13426;DHT22;6785;57.918;12.530;2023-07-09T07:20:51;22.10;99.90
13426;DHT22;6785;57.918;12.530;2023-07-09T07:23:18;22.20;99.90
13426;DHT22;6785;57.918;12.530;2023-07-09T07:25:46;22.30;99.90
13426;DHT22;6785;57.918;12.530;2023-07-09T07:28:17;22.50;99.90
13426;DHT22;6785;57.918;12.530;2023-07-09T07:30:47;22.80;99.90
13426;DHT22;6785;57.918;12.530;2023-07-09T07:36:11;23.20;99.90
13426;DHT22;6785;57.918;12.530;2023-07-09T07:38:38;23.30;99.90
13426;DHT22;6785;57.918;12.530;2023-07-09T07:41:05;23.40;99.90
13426;DHT22;6785;57.918;12.530;2023-07-09T07:43:32;23.50;99.90
13426;DHT22;6785;57.918;12.530;2023-07-09T07:45:58;23.50;99.90
13426;DHT22;6785;57.918;12.530;2023-07-09T07:48:25;23.60;99.90
13426;DHT22;6785;57.918;12.530;2023-07-09T07:50:58;23.80;99.90
13426;DHT22;6785;57.918;12.530;2023-07-09T07:53:25;23.90;99.90
13426;DHT22;6785;57.918;12.530;2023-07-09T07:55:55;24.00;99.90
13426;DHT22;6785;57.918;12.530;2023-07-09T07:58:22;24.20;99.90
13426;DHT22;6785;57.918;12.530;2023-07-09T08:00:48;23.80;99.90
13426;DHT22;6785;57.918;12.530;2023-07-09T08:03:17;24.00;99.90
13426;DHT22;6785;57.918;12.530;2023-07-09T08:05:48;24.20;99.90
13426;DHT22;6785;57.918;12.530;2023-07-09T08:08:16;24.10;99.90
13426;DHT22;6785;57.918;12.530;2023-07-09T08:10:49;24.20;99.90
13426;DHT22;6785;57.918;12.530;2023-07-09T08:13:15;24.30;99.90
13426;DHT22;6785;57.918;12.530;2023-07-09T08:15:45;24.50;99.90
13426;DHT22;6785;57.918;12.530;2023-07-09T08:18:12;24.50;99.90
13426;DHT22;6785;57.918;12.530;2023-07-09T08:20:44;24.50;99.90
13426;DHT22;6785;57.918;12.530;2023-07-09T08:23:11;24.60;99.90
13426;DHT22;6785;57.918;12.530;2023-07-09T08:25:38;24.60;99.90
13426;DHT22;6785;57.918;12.530;2023-07-09T08:28:05;24.60;99.90
13426;DHT22;6785;57.918;12.530;2023-07-09T08:30:32;24.30;99.90
13426;DHT22;6785;57.918;12.530;2023-07-09T08:32:59;24.30;99.90
13426;DHT22;6785;57.918;12.530;2023-07-09T08:38:05;24.40;99.90
13426;DHT22;6785;57.918;12.530;2023-07-09T08:40:49;24.50;99.90
13426;DHT22;6785;57.918;12.530;2023-07-09T08:43:35;24.50;99.90
13426;DHT22;6785;57.918;12.530;2023-07-09T08:46:29;24.60;99.90
13426;DHT22;6785;57.918;12.530;2023-07-09T08:49:01;24.60;99.90
13426;DHT22;6785;57.918;12.530;2023-07-09T08:51:38;24.80;99.90
13426;DHT22;6785;57.918;12.530;2023-07-09T08:54:15;25.10;99.90
13426;DHT22;6785;57.918;12.530;2023-07-09T08:56:51;25.10;99.90
13426;DHT22;6785;57.918;12.530;2023-07-09T08:59:24;25.10;99.90
13426;DHT22;6785;57.918;12.530;2023-07-09T09:01:56;25.10;99.90
13426;DHT22;6785;57.918;12.530;2023-07-09T09:04:29;25.10;99.90
13426;DHT22;6785;57.918;12.530;2023-07-09T09:07:01;25.10;99.90
13426;DHT22;6785;57.918;12.530;2023-07-09T09:09:35;25.10;99.90
13426;DHT22;6785;57.918;12.530;2023-07-09T09:12:13;25.40;99.90
13426;DHT22;6785;57.918;12.530;2023-07-09T09:14:44;25.50;99.90
13426;DHT22;6785;57.918;12.530;2023-07-09T09:17:14;25.50;99.90
13426;DHT22;6785;57.918;12.530;2023-07-09T09:19:53;25.50;99.90
13426;DHT22;6785;57.918;12.530;2023-07-09T09:22:23;25.60;99.90
13426;DHT22;6785;57.918;12.530;2023-07-09T09:25:03;25.70;99.90
13426;DHT22;6785;57.918;12.530;2023-07-09T09:27:36;25.70;99.90
13426;DHT22;6785;57.918;12.530;2023-07-09T09:30:12;25.80;99.90
13426;DHT22;6785;57.918;12.530;2023-07-09T09:32:43;25.80;99.90
13426;DHT22;6785;57.918;12.530;2023-07-09T09:35:14;25.80;99.90
13426;DHT22;6785;57.918;12.530;2023-07-09T09:37:52;25.70;99.90
13426;DHT22;6785;57.918;12.530;2023-07-09T09:40:20;25.70;99.90
13426;DHT22;6785;57.918;12.530;2023-07-09T09:42:55;25.80;99.90
13426;DHT22;6785;57.918;12.530;2023-07-09T09:45:38;25.80;99.90
13426;DHT22;6785;57.918;12.530;2023-07-09T09:48:20;25.80;99.90
13426;DHT22;6785;57.918;12.530;2023-07-09T09:51:06;25.40;99.90
13426;DHT22;6785;57.918;12.530;2023-07-09T09:53:45;25.30;99.90
13426;DHT22;6785;57.918;12.530;2023-07-09T09:56:24;25.40;99.90
13426;DHT22;6785;57.918;12.530;2023-07-09T09:59:05;25.50;99.90
13426;DHT22;6785;57.918;12.530;2023-07-09T10:01:46;25.50;99.90
13426;DHT22;6785;57.918;12.530;2023-07-09T10:04:18;25.60;99.90
13426;DHT22;6785;57.918;12.530;2023-07-09T10:06:58;25.70;99.90
13426;DHT22;6785;57.918;12.530;2023-07-09T10:09:39;25.50;99.90
13426;DHT22;6785;57.918;12.530;2023-07-09T10:12:26;25.60;99.90
13426;DHT22;6785;57.918;12.530;2023-07-09T10:15:13;25.60;99.90
13426;DHT22;6785;57.918;12.530;2023-07-09T10:20:43;25.70;99.90
13426;DHT22;6785;57.918;12.530;2023-07-09T10:23:22;25.80;99.90
13426;DHT22;6785;57.918;12.530;2023-07-09T10:25:53;25.80;99.90
13426;DHT22;6785;57.918;12.530;2023-07-09T10:28:44;25.80;99.90
13426;DHT22;6785;57.918;12.530;2023-07-09T10:31:24;25.90;99.90
13426;DHT22;6785;57.918;12.530;2023-07-09T10:34:03;26.00;99.90
13426;DHT22;6785;57.918;12.530;2023-07-09T10:37:00;26.00;99.90
13426;DHT22;6785;57.918;12.530;2023-07-09T10:39:30;25.80;99.90
13426;DHT22;6785;57.918;12.530;2023-07-09T10:42:12;25.70;99.90
13426;DHT22;6785;57.918;12.530;2023-07-09T10:44:41;25.70;99.90
13426;DHT22;6785;57.918;12.530;2023-07-09T10:47:22;25.70;99.90
13426;DHT22;6785;57.918;12.530;2023-07-09T10:49:59;25.80;99.90
13426;DHT22;6785;57.918;12.530;2023-07-09T10:52:42;25.80;99.90
13426;DHT22;6785;57.918;12.530;2023-07-09T10:55:21;25.90;99.90
13426;DHT22;6785;57.918;12.530;2023-07-09T10:58:00;25.70;99.90
13426;DHT22;6785;57.918;12.530;2023-07-09T11:00:39;25.70;99.90
13426;DHT22;6785;57.918;12.530;2023-07-09T11:03:14;25.60;99.90
13426;DHT22;6785;57.918;12.530;2023-07-09T11:05:42;25.70;99.90
13426;DHT22;6785;57.918;12.530;2023-07-09T11:08:14;25.90;99.90
13426;DHT22;6785;57.918;12.530;2023-07-09T11:10:50;26.00;99.90
13426;DHT22;6785;57.918;12.530;2023-07-09T11:13:35;26.10;99.90
13426;DHT22;6785;57.918;12.530;2023-07-09T11:16:13;26.10;99.90
13426;DHT22;6785;57.918;12.530;2023-07-09T11:18:59;26.10;99.90
13426;DHT22;6785;57.918;12.530;2023-07-09T11:21:26;26.20;99.90
13426;DHT22;6785;57.918;12.530;2023-07-09T11:24:00;26.30;99.90
13426;DHT22;6785;57.918;12.530;2023-07-09T11:26:29;26.40;99.90
13426;DHT22;6785;57.918;12.530;2023-07-09T11:29:16;26.40;99.90
13426;DHT22;6785;57.918;12.530;2023-07-09T11:31:50;26.30;99.90
13426;DHT22;6785;57.918;12.530;2023-07-09T11:34:19;26.30;99.90
13426;DHT22;6785;57.918;12.530;2023-07-09T11:37:08;26.40;99.90
13426;DHT22;6785;57.918;12.530;2023-07-09T11:39:48;26.60;99.90
13426;DHT22;6785;57.918;12.530;2023-07-09T11:42:31;26.80;99.90
13426;DHT22;6785;57.918;12.530;2023-07-09T11:45:03;26.70;99.90
13426;DHT22;6785;57.918;12.530;2023-07-09T11:47:47;26.70;99.90
13426;DHT22;6785;57.918;12.530;2023-07-09T11:50:23;26.80;99.90
13426;DHT22;6785;57.918;12.530;2023-07-09T11:53:03;27.00;99.90
13426;DHT22;6785;57.918;12.530;2023-07-09T11:55:38;27.10;99.90
13426;DHT22;6785;57.918;12.530;2023-07-09T11:58:18;27.20;99.90
13426;DHT22;6785;57.918;12.530;2023-07-09T12:00:50;27.10;99.90
13426;DHT22;6785;57.918;12.530;2023-07-09T12:03:34;27.10;99.90
13426;DHT22;6785;57.918;12.530;2023-07-09T12:06:20;26.90;99.90
13426;DHT22;6785;57.918;12.530;2023-07-09T12:08:58;27.00;99.90
13426;DHT22;6785;57.918;12.530;2023-07-09T12:11:29;26.90;99.90
13426;DHT22;6785;57.918;12.530;2023-07-09T12:14:02;27.10;99.40
13426;DHT22;6785;57.918;12.530;2023-07-09T12:16:35;27.20;99.90
13426;DHT22;6785;57.918;12.530;2023-07-09T12:19:08;27.20;99.90
13426;DHT22;6785;57.918;12.530;2023-07-09T12:21:53;27.20;99.90
13426;DHT22;6785;57.918;12.530;2023-07-09T12:24:21;27.10;99.90
13426;DHT22;6785;57.918;12.530;2023-07-09T12:26:55;26.90;99.90
13426;DHT22;6785;57.918;12.530;2023-07-09T12:29:24;26.70;99.90
13426;DHT22;6785;57.918;12.530;2023-07-09T12:32:02;26.80;99.90
13426;DHT22;6785;57.918;12.530;2023-07-09T12:34:35;26.90;99.90
13426;DHT22;6785;57.918;12.530;2023-07-09T12:37:28;27.00;99.90
13426;DHT22;6785;57.918;12.530;2023-07-09T12:40:12;27.10;99.90
13426;DHT22;6785;57.918;12.530;2023-07-09T12:42:44;27.30;99.50
13426;DHT22;6785;57.918;12.530;2023-07-09T12:45:18;27.30;99.90
13426;DHT22;6785;57.918;12.530;2023-07-09T12:47:46;27.10;99.90
13426;DHT22;6785;57.918;12.530;2023-07-09T12:50:21;27.00;99.90
13426;DHT22;6785;57.918;12.530;2023-07-09T12:52:50;27.10;99.90
13426;DHT22;6785;57.918;12.530;2023-07-09T12:55:37;27.30;99.90
13426;DHT22;6785;57.918;12.530;2023-07-09T12:58:08;27.30;99.90
13426;DHT22;6785;57.918;12.530;2023-07-09T13:00:36;27.20;99.90
13426;DHT22;6785;57.918;12.530;2023-07-09T13:03:03;27.20;99.90
13426;DHT22;6785;57.918;12.530;2023-07-09T13:05:38;27.30;99.90
13426;DHT22;6785;57.918;12.530;2023-07-09T13:08:14;27.50;99.90
13426;DHT22;6785;57.918;12.530;2023-07-09T13:10:41;27.30;99.90
13426;DHT22;6785;57.918;12.530;2023-07-09T13:13:13;27.40;99.90
13426;DHT22;6785;57.918;12.530;2023-07-09T13:15:42;27.60;99.90
13426;DHT22;6785;57.918;12.530;2023-07-09T13:18:13;27.70;99.90
13426;DHT22;6785;57.918;12.530;2023-07-09T13:20:43;27.80;99.90
13426;DHT22;6785;57.918;12.530;2023-07-09T13:23:15;27.70;99.90
13426;DHT22;6785;57.918;12.530;2023-07-09T13:25:42;27.80;99.90
13426;DHT22;6785;57.918;12.530;2023-07-09T13:28:16;27.80;99.90
13426;DHT22;6785;57.918;12.530;2023-07-09T13:30:46;27.80;99.90
13426;DHT22;6785;57.918;12.530;2023-07-09T13:33:13;27.70;99.90
13426;DHT22;6785;57.918;12.530;2023-07-09T13:35:40;27.80;99.90
13426;DHT22;6785;57.918;12.530;2023-07-09T13:40:59;27.80;99.90
13426;DHT22;6785;57.918;12.530;2023-07-09T13:43:28;27.80;99.90
13426;DHT22;6785;57.918;12.530;2023-07-09T13:45:56;27.60;99.90
13426;DHT22;6785;57.918;12.530;2023-07-09T13:48:27;27.70;99.90
13426;DHT22;6785;57.918;12.530;2023-07-09T13:51:13;27.60;99.90
13426;DHT22;6785;57.918;12.530;2023-07-09T13:53:41;27.50;99.90
13426;DHT22;6785;57.918;12.530;2023-07-09T13:56:15;27.70;99.90
13426;DHT22;6785;57.918;12.530;2023-07-09T13:58:42;27.80;98.80
13426;DHT22;6785;57.918;12.530;2023-07-09T14:01:11;27.80;99.90
13426;DHT22;6785;57.918;12.530;2023-07-09T14:03:44;27.70;99.90
13426;DHT22;6785;57.918;12.530;2023-07-09T14:06:12;27.70;99.90
13426;DHT22;6785;57.918;12.530;2023-07-09T14:08:39;27.70;98.70
13426;DHT22;6785;57.918;12.530;2023-07-09T14:11:15;27.70;99.90
13426;DHT22;6785;57.918;12.530;2023-07-09T14:13:43;27.70;99.90
13426;DHT22;6785;57.918;12.530;2023-07-09T14:16:11;27.60;99.50
13426;DHT22;6785;57.918;12.530;2023-07-09T14:18:38;27.80;99.90
13426;DHT22;6785;57.918;12.530;2023-07-09T14:21:11;27.90;99.90
13426;DHT22;6785;57.918;12.530;2023-07-09T14:23:42;27.90;99.90
13426;DHT22;6785;57.918;12.530;2023-07-09T14:26:12;27.90;99.90
13426;DHT22;6785;57.918;12.530;2023-07-09T14:28:43;27.80;99.90
13426;DHT22;6785;57.918;12.530;2023-07-09T14:31:22;27.90;98.40
13426;DHT22;6785;57.918;12.530;2023-07-09T14:33:49;27.80;99.90
13426;DHT22;6785;57.918;12.530;2023-07-09T14:36:16;27.80;99.90
13426;DHT22;6785;57.918;12.530;2023-07-09T14:38:43;27.60;99.70
13426;DHT22;6785;57.918;12.530;2023-07-09T14:41:21;27.70;98.10
13426;DHT22;6785;57.918;12.530;2023-07-09T14:46:43;27.80;97.10
13426;DHT22;6785;57.918;12.530;2023-07-09T14:49:13;27.70;99.10
13426;DHT22;6785;57.918;12.530;2023-07-09T14:51:40;27.80;96.50
13426;DHT22;6785;57.918;12.530;2023-07-09T14:54:18;27.60;97.30
13426;DHT22;6785;57.918;12.530;2023-07-09T14:56:45;27.60;98.40
13426;DHT22;6785;57.918;12.530;2023-07-09T14:59:11;27.60;98.40
13426;DHT22;6785;57.918;12.530;2023-07-09T15:01:38;27.50;99.10
13426;DHT22;6785;57.918;12.530;2023-07-09T15:04:29;27.40;98.60
13426;DHT22;6785;57.918;12.530;2023-07-09T15:07:08;27.10;99.90
13426;DHT22;6785;57.918;12.530;2023-07-09T15:09:37;26.90;99.90
13426;DHT22;6785;57.918;12.530;2023-07-09T15:12:04;26.80;98.00
13426;DHT22;6785;57.918;12.530;2023-07-09T15:14:31;26.60;99.90
13426;DHT22;6785;57.918;12.530;2023-07-09T15:16:58;26.50;99.80
13426;DHT22;6785;57.918;12.530;2023-07-09T15:19:29;26.50;99.90
13426;DHT22;6785;57.918;12.530;2023-07-09T15:21:56;26.50;99.40
13426;DHT22;6785;57.918;12.530;2023-07-09T15:24:29;26.50;99.80
13426;DHT22;6785;57.918;12.530;2023-07-09T15:27:05;26.40;99.90
13426;DHT22;6785;57.918;12.530;2023-07-09T15:29:32;26.20;99.90
13426;DHT22;6785;57.918;12.530;2023-07-09T15:32:01;26.10;99.90
13426;DHT22;6785;57.918;12.530;2023-07-09T15:34:29;26.20;99.90
13426;DHT22;6785;57.918;12.530;2023-07-09T15:37:04;26.20;99.90
13426;DHT22;6785;57.918;12.530;2023-07-09T15:39:35;26.20;99.90
13426;DHT22;6785;57.918;12.530;2023-07-09T15:42:22;26.10;99.90
13426;DHT22;6785;57.918;12.530;2023-07-09T15:44:49;26.00;99.90
13426;DHT22;6785;57.918;12.530;2023-07-09T15:47:22;26.00;99.90
13426;DHT22;6785;57.918;12.530;2023-07-09T15:49:55;26.00;99.90
13426;DHT22;6785;57.918;12.530;2023-07-09T15:52:25;26.10;99.90
13426;DHT22;6785;57.918;12.530;2023-07-09T15:54:52;26.20;99.90
13426;DHT22;6785;57.918;12.530;2023-07-09T15:57:18;26.00;99.90
13426;DHT22;6785;57.918;12.530;2023-07-09T15:59:45;25.80;99.90
13426;DHT22;6785;57.918;12.530;2023-07-09T16:02:14;25.70;99.90
13426;DHT22;6785;57.918;12.530;2023-07-09T16:04:43;25.70;99.90
13426;DHT22;6785;57.918;12.530;2023-07-09T16:07:18;25.90;99.90
13426;DHT22;6785;57.918;12.530;2023-07-09T16:09:51;26.00;99.90
13426;DHT22;6785;57.918;12.530;2023-07-09T16:12:18;26.10;99.90